createdAt,value
2022-12-17T00:01:40.372Z,5.33
2022-12-17T00:16:41.923Z,4.50
2022-12-17T00:31:43.467Z,5.73
2022-12-17T00:46:45.000Z,5.07
2022-12-17T01:01:46.621Z,5.47
2022-12-17T01:16:48.269Z,5.83
2022-12-17T01:31:49.843Z,5.57
2022-12-17T01:46:51.351Z,4.93
2022-12-17T02:01:52.946Z,6.23
2022-12-17T02:16:54.675Z,5.73
2022-12-17T02:31:56.241Z,5.90
2022-12-17T02:46:57.723Z,5.60
2022-12-17T03:01:59.326Z,5.57
2022-12-17T03:17:00.962Z,5.70
2022-12-17T03:32:02.461Z,5.70
2022-12-17T03:47:03.926Z,5.03
2022-12-17T04:02:05.540Z,5.70
2022-12-17T04:17:07.089Z,6.30
2022-12-17T04:32:08.540Z,5.23
2022-12-17T04:47:10.006Z,4.97
2022-12-17T05:02:11.806Z,5.83
2022-12-17T05:17:13.320Z,5.03
2022-12-17T05:32:14.789Z,5.53
2022-12-17T05:47:16.248Z,5.50
2022-12-17T06:02:17.790Z,7.40
2022-12-17T06:17:19.279Z,5.70
2022-12-17T06:32:20.734Z,5.37
2022-12-17T06:47:22.200Z,5.40
2022-12-17T07:02:23.761Z,5.07
2022-12-17T07:17:25.291Z,5.27
2022-12-17T07:32:26.755Z,6.90
2022-12-17T07:47:28.221Z,5.30
2022-12-17T08:02:29.813Z,4.67
2022-12-17T08:17:31.487Z,5.50
2022-12-17T08:32:33.268Z,6.03
2022-12-17T08:47:34.738Z,7.93
2022-12-17T09:02:36.264Z,7.87
2022-12-17T09:17:37.773Z,8.53
2022-12-17T09:32:39.232Z,7.10
2022-12-17T09:47:40.735Z,7.53
2022-12-17T10:02:42.264Z,7.67
2022-12-17T10:17:43.881Z,9.67
2022-12-17T10:32:45.369Z,10.53
2022-12-17T10:47:46.836Z,8.40
2022-12-17T11:02:48.456Z,9.50
2022-12-17T11:17:50.038Z,8.33
2022-12-17T11:32:51.516Z,7.90
2022-12-17T11:47:58.918Z,10.73
2022-12-17T12:03:01.060Z,8.63
2022-12-17T12:18:02.622Z,9.30
2022-12-17T12:33:09.638Z,8.13
2022-12-17T12:48:11.380Z,8.63
2022-12-17T13:03:12.876Z,9.00
2022-12-17T13:18:14.445Z,12.07
2022-12-17T13:33:15.889Z,15.33
2022-12-17T13:48:17.341Z,16.80
2022-12-17T14:03:18.835Z,15.30
2022-12-17T14:18:20.314Z,14.07
2022-12-17T14:33:21.770Z,10.90
2022-12-17T14:48:23.240Z,13.33
2022-12-17T15:03:24.865Z,11.13
2022-12-17T15:18:26.442Z,10.83
2022-12-17T15:33:27.905Z,13.53
2022-12-17T15:48:29.394Z,10.00
2022-12-17T16:03:30.930Z,13.00
2022-12-17T16:18:32.460Z,13.70
2022-12-17T16:33:35.827Z,13.97
2022-12-17T16:48:37.901Z,18.83
2022-12-17T17:03:39.698Z,27.60
2022-12-17T17:18:41.519Z,23.07
2022-12-17T17:33:43.359Z,19.03
2022-12-17T17:48:44.805Z,16.23
2022-12-17T18:03:46.335Z,15.43
2022-12-17T18:18:47.838Z,12.90
2022-12-17T18:33:49.315Z,13.43
2022-12-17T18:48:50.814Z,12.60
2022-12-17T19:03:52.316Z,11.23
2022-12-17T19:18:53.773Z,12.33
2022-12-17T19:33:55.228Z,10.73
2022-12-17T19:48:57.383Z,11.63
2022-12-17T20:03:59.053Z,12.30
2022-12-17T20:19:00.530Z,12.60
2022-12-17T20:34:01.979Z,10.77
2022-12-17T20:49:03.462Z,12.47
2022-12-17T21:04:04.907Z,13.37
2022-12-17T21:19:06.370Z,10.00
2022-12-17T21:34:07.820Z,11.00
2022-12-17T21:49:09.537Z,10.17
2022-12-17T22:04:11.259Z,11.30
2022-12-17T22:19:12.742Z,11.87
2022-12-17T22:35:00.686Z,11.37
2022-12-17T22:49:36.741Z,15.53
2022-12-17T23:04:38.357Z,12.47
2022-12-17T23:19:39.818Z,19.10
2022-12-17T23:34:41.306Z,12.87
2022-12-17T23:49:42.764Z,17.40
